Time;durP1;ratioP1;P1;durP2;ratioP2;P2;SDS_P1;SDS_P2;PMS_P1;PMS_P2;Temp;Humidity;BMP_temperature;BMP_pressure;BME280_temperature;BME280_humidity;BME280_pressure;Samples;Min_cycle;Max_cycle;Signal;HPM_P1;HPM_P2
2021/04/24 00:01:44;;;;;;;21.95;9.15;;;6.80;80.20;;;;;;4933918;28;20545;-68
2021/04/24 00:04:10;;;;;;;18.75;9.18;;;6.70;80.40;;;;;;4934792;28;20032;-65
2021/04/24 00:06:35;;;;;;;16.48;7.65;;;6.70;81.20;;;;;;4934891;28;20043;-68
2021/04/24 00:09:04;;;;;;;19.10;8.63;;;6.70;81.00;;;;;;4935731;28;20086;-69
2021/04/24 00:11:32;;;;;;;17.98;7.90;;;6.70;81.00;;;;;;4932615;28;20042;-69
2021/04/24 00:13:58;;;;;;;18.60;8.07;;;6.70;80.80;;;;;;4935264;28;20481;-68
2021/04/24 00:16:24;;;;;;;19.45;8.25;;;6.70;80.60;;;;;;4932970;28;20045;-68
2021/04/24 00:18:49;;;;;;;22.77;8.20;;;6.70;81.10;;;;;;4935647;28;20046;-65
2021/04/24 00:21:15;;;;;;;18.90;7.72;;;6.70;81.20;;;;;;4935110;28;20044;-67
2021/04/24 00:23:41;;;;;;;17.52;7.20;;;6.70;80.80;;;;;;4935946;28;20265;-64
2021/04/24 00:26:10;;;;;;;12.57;6.72;;;6.70;81.30;;;;;;4935243;28;20336;-67
2021/04/24 00:28:39;;;;;;;13.48;6.90;;;6.70;81.30;;;;;;4934445;28;21283;-67
2021/04/24 00:31:05;;;;;;;17.08;7.47;;;6.70;81.20;;;;;;4935510;28;20044;-66
2021/04/24 00:33:31;;;;;;;19.02;7.15;;;6.60;82.00;;;;;;4936596;28;20050;-68
2021/04/24 00:35:57;;;;;;;15.73;7.45;;;6.60;82.00;;;;;;4935913;28;20054;-65
2021/04/24 00:38:23;;;;;;;13.93;6.93;;;6.60;82.10;;;;;;4935106;28;20039;-66
2021/04/24 00:40:49;;;;;;;15.27;7.05;;;6.60;82.20;;;;;;4935683;28;20059;-66
2021/04/24 00:43:16;;;;;;;13.77;6.10;;;6.60;82.40;;;;;;4934679;28;20118;-66
2021/04/24 00:45:42;;;;;;;14.68;7.03;;;6.60;82.70;;;;;;4936409;28;20031;-67
2021/04/24 00:48:12;;;;;;;14.73;5.85;;;6.50;82.60;;;;;;4953473;28;20035;-66
2021/04/24 00:50:40;;;;;;;17.02;7.60;;;6.60;82.70;;;;;;5000986;23;20074;-67
2021/04/24 00:53:09;;;;;;;16.30;6.85;;;6.50;82.80;;;;;;4982625;28;20547;-67
2021/04/24 00:55:36;;;;;;;19.38;7.90;;;6.50;83.20;;;;;;4983960;28;20377;-69
2021/04/24 00:58:05;;;;;;;16.13;7.13;;;6.40;83.50;;;;;;4984297;28;20038;-67
2021/04/24 01:00:34;;;;;;;14.77;6.65;;;6.40;83.40;;;;;;4980812;28;20376;-68
2021/04/24 01:03:00;;;;;;;13.15;6.43;;;6.40;83.20;;;;;;4978603;28;20432;-67
2021/04/24 01:05:34;;;;;;;15.05;6.90;;;6.40;84.00;;;;;;4969966;28;20034;-67
2021/04/24 01:08:00;;;;;;;22.33;7.65;;;6.40;83.80;;;;;;4978467;28;20030;-67
2021/04/24 01:10:33;;;;;;;17.90;6.38;;;6.30;84.00;;;;;;4978385;28;20396;-67
2021/04/24 01:12:59;;;;;;;13.75;6.15;;;6.30;84.20;;;;;;4979230;28;20038;-67
2021/04/24 01:15:25;;;;;;;12.43;6.43;;;6.30;84.20;;;;;;4978955;28;20033;-67
2021/04/24 01:17:51;;;;;;;16.38;6.28;;;6.30;84.20;;;;;;4976283;28;20120;-67
2021/04/24 01:20:18;;;;;;;18.48;6.82;;;6.30;83.90;;;;;;4978241;28;20126;-66
2021/04/24 01:22:45;;;;;;;16.42;6.50;;;6.30;84.30;;;;;;4967286;28;20109;-68
2021/04/24 01:25:20;;;;;;;16.30;6.53;;;6.30;83.90;;;;;;4978171;28;20065;-69
2021/04/24 01:27:57;;;;;;;15.65;6.05;;;6.30;84.00;;;;;;4977327;28;20086;-68
2021/04/24 01:30:27;;;;;;;14.50;6.95;;;6.30;84.60;;;;;;4979932;28;20133;-67
2021/04/24 01:32:55;;;;;;;15.80;6.85;;;6.20;84.40;;;;;;4978986;28;20121;-67
2021/04/24 01:35:24;;;;;;;14.85;6.43;;;6.30;84.60;;;;;;4975748;28;20496;-68
2021/04/24 01:37:50;;;;;;;15.98;6.13;;;6.20;84.80;;;;;;4976103;28;20046;-67
2021/04/24 01:40:17;;;;;;;15.77;7.22;;;6.20;84.40;;;;;;4971228;28;20037;-67
2021/04/24 01:42:43;;;;;;;16.40;7.82;;;6.30;84.60;;;;;;4974196;28;20041;-69
2021/04/24 01:45:11;;;;;;;18.40;8.05;;;6.30;85.10;;;;;;4981140;28;20035;-68
2021/04/24 01:47:39;;;;;;;22.67;8.05;;;6.30;85.20;;;;;;4984387;28;20369;-68
2021/04/24 01:50:14;;;;;;;17.92;7.95;;;6.20;85.70;;;;;;4979763;28;20566;-69
2021/04/24 01:52:41;;;;;;;17.20;7.22;;;6.20;85.70;;;;;;4976323;28;20035;-68
2021/04/24 01:55:11;;;;;;;19.02;7.50;;;6.30;85.20;;;;;;4981647;28;20031;-69
2021/04/24 01:57:43;;;;;;;13.02;6.50;;;6.30;85.00;;;;;;4978904;28;20078;-68
2021/04/24 02:00:12;;;;;;;14.95;6.72;;;6.40;84.60;;;;;;4965295;28;20061;-68
2021/04/24 02:02:38;;;;;;;14.77;7.05;;;6.40;84.40;;;;;;4973025;28;20093;-68
2021/04/24 02:05:07;;;;;;;14.90;6.32;;;6.40;84.40;;;;;;4974761;28;20081;-67
2021/04/24 02:07:33;;;;;;;13.20;6.68;;;6.40;84.30;;;;;;4983790;28;20041;-67
2021/04/24 02:09:59;;;;;;;15.68;6.93;;;6.40;84.00;;;;;;4974327;28;20497;-67
2021/04/24 02:12:25;;;;;;;17.50;7.30;;;6.40;83.90;;;;;;4975628;28;20562;-67
2021/04/24 02:14:52;;;;;;;13.73;6.13;;;6.40;84.40;;;;;;4977929;28;20546;-67
2021/04/24 02:17:23;;;;;;;14.07;6.25;;;6.40;84.30;;;;;;4970021;28;20067;-66
2021/04/24 02:19:52;;;;;;;18.60;6.30;;;6.40;84.50;;;;;;4976590;28;20070;-67
2021/04/24 02:22:19;;;;;;;13.85;6.65;;;6.30;85.20;;;;;;4974583;28;20030;-68
2021/04/24 02:24:54;;;;;;;12.10;6.40;;;6.30;85.60;;;;;;4976333;28;20037;-67
2021/04/24 02:27:20;;;;;;;16.38;6.45;;;6.30;85.40;;;;;;4978790;28;20306;-68
2021/04/24 02:29:47;;;;;;;12.57;6.50;;;6.30;85.30;;;;;;4981259;28;20038;-67
2021/04/24 02:32:15;;;;;;;13.43;5.90;;;6.30;85.30;;;;;;4976001;28;20065;-68
2021/04/24 02:34:43;;;;;;;11.82;5.72;;;6.30;85.00;;;;;;4973179;28;20038;-68
2021/04/24 02:37:10;;;;;;;19.92;6.55;;;6.30;85.00;;;;;;4972829;28;20058;-68
2021/04/24 02:39:38;;;;;;;12.38;5.40;;;6.20;86.10;;;;;;4960867;28;20117;-67
2021/04/24 02:42:05;;;;;;;13.75;6.85;;;6.20;85.70;;;;;;4975129;28;20031;-67
2021/04/24 02:44:32;;;;;;;15.90;5.85;;;6.20;85.60;;;;;;4974817;28;20029;-67
2021/04/24 02:47:01;;;;;;;18.13;5.95;;;6.20;85.50;;;;;;4974534;28;20397;-67
2021/04/24 02:49:27;;;;;;;13.32;5.68;;;6.10;85.80;;;;;;4975645;28;20030;-67
2021/04/24 02:51:54;;;;;;;13.63;6.55;;;6.20;85.50;;;;;;4978450;28;20380;-68
2021/04/24 02:54:21;;;;;;;13.30;5.93;;;6.20;85.40;;;;;;4966361;28;20076;-67
2021/04/24 02:56:47;;;;;;;15.15;6.05;;;6.10;85.30;;;;;;4972651;28;20031;-67
2021/04/24 02:59:13;;;;;;;12.55;5.75;;;6.20;85.40;;;;;;4974370;28;20045;-67
2021/04/24 03:01:39;;;;;;;12.95;5.50;;;6.10;85.20;;;;;;4975460;28;20109;-68
2021/04/24 03:04:05;;;;;;;17.17;5.65;;;6.10;85.50;;;;;;4973496;28;20403;-68
2021/04/24 03:06:31;;;;;;;15.63;6.03;;;6.10;85.50;;;;;;4974807;28;20026;-68
2021/04/24 03:08:57;;;;;;;16.00;6.10;;;6.10;85.40;;;;;;4975966;28;20045;-68
2021/04/24 03:11:22;;;;;;;16.90;5.75;;;6.10;85.60;;;;;;4973401;28;20125;-68
2021/04/24 03:13:48;;;;;;;12.77;5.88;;;6.10;85.40;;;;;;4970230;28;20031;-68
2021/04/24 03:16:14;;;;;;;17.98;5.63;;;6.10;85.30;;;;;;4972568;28;20464;-67
2021/04/24 03:18:40;;;;;;;15.90;5.82;;;6.10;85.40;;;;;;4974676;28;20093;-67
2021/04/24 03:21:05;;;;;;;13.68;5.47;;;6.10;85.20;;;;;;4971691;28;20034;-69
2021/04/24 03:23:31;;;;;;;12.07;5.65;;;6.10;85.30;;;;;;4975919;28;20097;-66
2021/04/24 03:25:58;;;;;;;12.13;5.63;;;6.10;85.40;;;;;;4980353;28;20030;-68
2021/04/24 03:28:23;;;;;;;16.90;6.15;;;6.10;85.40;;;;;;4976565;28;20019;-67
2021/04/24 03:30:49;;;;;;;14.48;6.15;;;6.00;85.60;;;;;;4968795;28;20465;-67
2021/04/24 03:33:15;;;;;;;16.15;5.95;;;6.10;86.10;;;;;;4977357;28;20034;-67
2021/04/24 03:35:41;;;;;;;13.32;5.80;;;6.00;85.80;;;;;;4970827;28;20034;-67
2021/04/24 03:38:07;;;;;;;15.45;5.57;;;6.10;86.20;;;;;;4972074;28;20034;-68
2021/04/24 03:40:34;;;;;;;12.07;4.97;;;6.00;86.10;;;;;;4976618;28;20041;-66
2021/04/24 03:43:01;;;;;;;12.07;5.30;;;6.10;86.00;;;;;;4985466;28;20031;-67
2021/04/24 03:45:27;;;;;;;13.07;5.65;;;6.00;86.00;;;;;;4977903;28;20074;-67
2021/04/24 03:47:54;;;;;;;13.13;4.68;;;6.00;86.20;;;;;;4974529;28;20097;-66
2021/04/24 03:50:22;;;;;;;10.40;4.82;;;6.00;86.30;;;;;;4966862;28;20381;-67
2021/04/24 03:52:48;;;;;;;15.13;5.90;;;6.00;86.00;;;;;;4960019;28;20082;-67
2021/04/24 03:55:15;;;;;;;12.10;5.30;;;6.00;86.20;;;;;;4975818;28;20031;-68
2021/04/24 03:57:46;;;;;;;11.93;4.60;;;6.00;86.40;;;;;;4981377;28;20031;-67
2021/04/24 04:00:13;;;;;;;9.95;4.68;;;6.00;86.30;;;;;;4989063;28;20026;-66
2021/04/24 04:02:47;;;;;;;13.38;5.47;;;6.00;86.20;;;;;;4976801;28;20023;-67
2021/04/24 04:05:14;;;;;;;12.77;5.03;;;6.00;86.70;;;;;;4963273;28;20100;-67
2021/04/24 04:07:40;;;;;;;18.10;5.97;;;6.00;87.00;;;;;;4972277;28;20092;-68
2021/04/24 04:10:06;;;;;;;10.73;4.78;;;5.90;87.00;;;;;;4973525;28;20031;-67
2021/04/24 04:12:32;;;;;;;16.08;5.35;;;5.90;86.80;;;;;;4975384;28;20241;-70
2021/04/24 04:14:58;;;;;;;13.90;4.60;;;5.90;87.10;;;;;;4980859;28;20046;-67
2021/04/24 04:17:23;;;;;;;15.48;5.13;;;5.90;87.30;;;;;;4976294;28;20030;-67
2021/04/24 04:19:49;;;;;;;12.77;5.55;;;5.90;87.30;;;;;;4971737;28;20103;-67
2021/04/24 04:22:15;;;;;;;14.63;5.85;;;5.90;88.10;;;;;;4973728;28;20019;-68
2021/04/24 04:24:40;;;;;;;19.00;5.53;;;5.90;87.60;;;;;;4985884;28;20044;-68
2021/04/24 04:27:06;;;;;;;17.05;5.35;;;5.90;87.60;;;;;;4984886;28;20111;-68
2021/04/24 04:29:32;;;;;;;13.50;4.55;;;5.90;87.40;;;;;;4980961;28;20026;-67
2021/04/24 04:31:58;;;;;;;17.25;4.78;;;5.90;87.60;;;;;;4976762;28;20037;-67
2021/04/24 04:34:24;;;;;;;11.25;5.72;;;6.00;87.30;;;;;;4982201;28;20105;-68
2021/04/24 04:36:50;;;;;;;12.35;4.88;;;6.00;87.00;;;;;;4971547;28;20117;-70
2021/04/24 04:39:15;;;;;;;19.80;5.43;;;6.00;86.90;;;;;;4976880;28;20057;-68
2021/04/24 04:41:41;;;;;;;18.23;5.15;;;6.00;86.90;;;;;;4980663;28;20041;-67
2021/04/24 04:44:07;;;;;;;14.32;5.32;;;6.00;87.30;;;;;;4979227;28;20037;-67
2021/04/24 04:46:32;;;;;;;13.43;5.15;;;6.00;87.00;;;;;;4977862;28;20109;-67
2021/04/24 04:48:59;;;;;;;15.57;5.43;;;6.10;86.80;;;;;;4977667;28;20028;-68
2021/04/24 04:51:25;;;;;;;15.23;5.05;;;6.10;86.70;;;;;;4985315;28;20030;-68
2021/04/24 04:53:50;;;;;;;12.15;4.15;;;6.10;87.00;;;;;;4974778;28;20035;-68
2021/04/24 04:56:16;;;;;;;17.50;5.00;;;6.00;87.00;;;;;;4979149;28;20035;-68
2021/04/24 04:58:42;;;;;;;15.20;5.13;;;6.00;86.90;;;;;;4976469;28;20030;-68
2021/04/24 05:01:07;;;;;;;14.10;5.65;;;6.00;86.70;;;;;;4973720;28;20031;-68
2021/04/24 05:03:33;;;;;;;12.43;5.15;;;6.10;86.60;;;;;;4976084;28;20030;-67
2021/04/24 05:06:02;;;;;;;15.68;5.20;;;6.10;86.50;;;;;;4978100;28;20118;-67
2021/04/24 05:08:28;;;;;;;17.15;5.90;;;6.10;86.30;;;;;;4975024;28;20195;-68
2021/04/24 05:10:54;;;;;;;11.18;4.85;;;6.10;86.50;;;;;;4971245;28;20105;-68
2021/04/24 05:13:19;;;;;;;15.25;4.65;;;6.10;86.40;;;;;;4979284;28;20462;-67
2021/04/24 05:15:45;;;;;;;12.02;4.40;;;6.10;86.60;;;;;;4979060;28;20056;-68
2021/04/24 05:18:11;;;;;;;14.90;5.20;;;6.10;86.40;;;;;;4977841;28;20043;-68
2021/04/24 05:20:37;;;;;;;11.15;4.60;;;6.10;86.20;;;;;;4977679;28;20069;-68
2021/04/24 05:23:02;;;;;;;10.32;4.00;;;6.20;85.90;;;;;;4972085;28;20100;-65
2021/04/24 05:25:28;;;;;;;12.93;4.90;;;6.20;85.50;;;;;;4975897;28;20112;-66
2021/04/24 05:27:54;;;;;;;17.75;5.18;;;6.20;85.50;;;;;;4968586;28;20480;-66
2021/04/24 05:30:20;;;;;;;13.98;4.70;;;6.20;85.40;;;;;;4971183;28;20061;-66
2021/04/24 05:32:47;;;;;;;13.35;4.20;;;6.30;85.20;;;;;;4974626;28;20477;-66
2021/04/24 05:35:15;;;;;;;15.13;5.38;;;6.30;85.10;;;;;;4975156;28;20505;-67
2021/04/24 05:37:41;;;;;;;14.50;4.20;;;6.30;84.80;;;;;;4977255;28;20038;-67
2021/04/24 05:40:08;;;;;;;8.32;3.58;;;6.30;84.80;;;;;;4977876;28;20035;-67
2021/04/24 05:42:34;;;;;;;17.75;4.95;;;6.40;84.60;;;;;;4980812;28;20028;-66
2021/04/24 05:45:10;;;;;;;15.63;4.32;;;6.40;84.30;;;;;;4978048;28;20043;-68
2021/04/24 05:47:39;;;;;;;12.30;3.95;;;6.50;84.10;;;;;;4962758;28;20092;-68
2021/04/24 05:50:06;;;;;;;16.45;4.82;;;6.50;84.00;;;;;;4965264;28;20417;-68
2021/04/24 05:52:32;;;;;;;14.68;4.40;;;6.50;83.90;;;;;;4975490;28;20117;-69
2021/04/24 05:54:58;;;;;;;14.43;4.43;;;6.50;83.90;;;;;;4980667;28;20180;-67
2021/04/24 05:57:23;;;;;;;11.10;3.80;;;6.50;83.90;;;;;;4976427;28;20039;-68
2021/04/24 05:59:52;;;;;;;20.70;5.05;;;6.60;83.90;;;;;;4981833;28;20029;-68
2021/04/24 06:02:21;;;;;;;16.48;4.57;;;6.60;84.00;;;;;;4973255;28;20121;-67
2021/04/24 06:04:47;;;;;;;18.70;4.75;;;6.60;83.80;;;;;;4968709;28;20105;-66
2021/04/24 06:07:13;;;;;;;18.23;5.03;;;6.60;84.40;;;;;;4981213;28;20081;-69
2021/04/24 06:09:40;;;;;;;16.35;4.35;;;6.70;84.00;;;;;;4981590;28;20035;-66
2021/04/24 06:12:06;;;;;;;16.95;4.95;;;6.70;83.80;;;;;;4978898;28;20543;-67
2021/04/24 06:14:33;;;;;;;12.57;3.90;;;6.70;83.90;;;;;;4978271;28;20030;-67
2021/04/24 06:16:59;;;;;;;17.40;4.28;;;6.80;83.80;;;;;;4976150;28;20031;-67
2021/04/24 06:19:26;;;;;;;14.38;3.97;;;6.80;83.60;;;;;;4973552;28;20432;-67
2021/04/24 06:21:53;;;;;;;14.45;4.63;;;6.80;83.50;;;;;;4976143;28;20062;-66
2021/04/24 06:24:20;;;;;;;15.35;4.50;;;6.80;83.60;;;;;;4974542;28;20114;-67
2021/04/24 06:26:46;;;;;;;13.02;4.10;;;6.90;83.50;;;;;;4970417;28;20444;-67
2021/04/24 06:29:12;;;;;;;8.88;3.85;;;6.90;83.50;;;;;;4972241;28;20031;-68
2021/04/24 06:31:37;;;;;;;15.40;4.88;;;6.90;83.50;;;;;;4971154;28;20057;-67
2021/04/24 06:34:03;;;;;;;9.48;3.30;;;7.00;83.60;;;;;;4969546;28;20438;-68
2021/04/24 06:36:29;;;;;;;15.25;3.72;;;7.00;83.50;;;;;;4968801;28;20038;-67
2021/04/24 06:38:58;;;;;;;21.63;5.80;;;7.00;83.40;;;;;;4980879;28;20055;-67
2021/04/24 06:41:25;;;;;;;19.67;4.40;;;7.00;83.40;;;;;;4975578;28;20077;-66
2021/04/24 06:43:50;;;;;;;16.23;3.70;;;7.00;83.50;;;;;;4976588;28;20105;-72
2021/04/24 06:46:16;;;;;;;15.13;3.22;;;7.10;83.50;;;;;;4976962;28;20098;-67
2021/04/24 06:48:41;;;;;;;17.20;3.72;;;7.10;83.50;;;;;;4979926;28;20057;-67
2021/04/24 06:51:07;;;;;;;13.35;3.97;;;7.10;83.60;;;;;;5002701;23;20054;-66
2021/04/24 06:53:33;;;;;;;10.40;3.58;;;7.20;83.40;;;;;;4982157;28;20023;-66
2021/04/24 06:55:59;;;;;;;14.88;3.70;;;7.20;83.10;;;;;;4980167;28;20030;-67
2021/04/24 06:58:25;;;;;;;9.82;3.35;;;7.30;82.70;;;;;;4980719;28;20035;-67
2021/04/24 07:00:55;;;;;;;11.73;3.80;;;7.30;82.70;;;;;;4965809;28;20049;-70
2021/04/24 07:03:22;;;;;;;14.77;3.70;;;7.30;82.40;;;;;;4965202;28;20070;-67
2021/04/24 07:05:48;;;;;;;16.02;3.75;;;7.40;81.90;;;;;;4961865;28;20027;-66
2021/04/24 07:08:13;;;;;;;11.40;3.25;;;7.40;82.10;;;;;;4957011;28;20596;-69
2021/04/24 07:10:39;;;;;;;14.68;3.90;;;7.40;81.70;;;;;;4954522;28;20097;-66
2021/04/24 07:13:05;;;;;;;11.05;3.45;;;7.50;81.80;;;;;;4962324;28;20660;-67
2021/04/24 07:15:31;;;;;;;16.48;3.67;;;7.50;81.60;;;;;;4961144;28;20030;-68
2021/04/24 07:17:56;;;;;;;13.38;3.42;;;7.60;81.60;;;;;;4962963;28;20039;-68
2021/04/24 07:20:22;;;;;;;17.98;3.25;;;7.60;81.10;;;;;;4960351;28;20114;-67
2021/04/24 07:22:48;;;;;;;14.77;3.38;;;7.60;80.60;;;;;;4958894;28;20023;-67
2021/04/24 07:25:14;;;;;;;11.73;2.97;;;7.70;80.10;;;;;;4958871;28;20030;-67
2021/04/24 07:27:40;;;;;;;14.15;3.65;;;7.70;80.20;;;;;;4960724;28;20472;-67
2021/04/24 07:30:08;;;;;;;13.30;3.45;;;7.80;80.10;;;;;;4962731;28;20704;-68
2021/04/24 07:32:34;;;;;;;13.05;3.40;;;7.80;79.50;;;;;;4962974;28;20138;-67
2021/04/24 07:35:01;;;;;;;11.23;3.00;;;7.90;79.60;;;;;;4962070;28;20695;-67
2021/04/24 07:37:27;;;;;;;14.05;3.10;;;7.90;78.40;;;;;;4959898;28;20106;-67
2021/04/24 07:39:53;;;;;;;18.48;3.70;;;8.00;77.80;;;;;;4959223;28;20035;-66
2021/04/24 07:42:19;;;;;;;11.93;2.80;;;8.00;77.30;;;;;;4961037;28;20051;-67
2021/04/24 07:44:45;;;;;;;13.57;3.13;;;8.10;77.30;;;;;;4954778;28;20038;-66
2021/04/24 07:47:11;;;;;;;13.73;3.05;;;8.10;76.90;;;;;;4962139;28;20031;-67
2021/04/24 07:49:41;;;;;;;15.02;3.63;;;8.20;76.70;;;;;;4960158;28;20019;-66
2021/04/24 07:52:08;;;;;;;15.88;3.70;;;8.20;76.40;;;;;;4961111;28;20032;-66
2021/04/24 07:54:40;;;;;;;14.45;3.50;;;8.30;75.80;;;;;;4960034;28;20123;-66
2021/04/24 07:57:07;;;;;;;15.82;3.22;;;8.30;75.50;;;;;;4959166;28;20038;-66
2021/04/24 07:59:33;;;;;;;12.07;3.03;;;8.40;75.20;;;;;;4959594;28;20057;-66
2021/04/24 08:01:59;;;;;;;9.90;2.75;;;8.50;75.30;;;;;;4963363;28;20093;-66
2021/04/24 08:04:25;;;;;;;11.07;3.30;;;8.50;75.50;;;;;;4967535;28;20035;-67
2021/04/24 08:06:51;;;;;;;11.98;2.72;;;8.50;73.60;;;;;;4950147;28;20026;-66
2021/04/24 08:09:16;;;;;;;13.77;3.00;;;8.50;73.50;;;;;;4962330;28;20547;-66
2021/04/24 08:11:43;;;;;;;10.45;2.70;;;8.50;72.50;;;;;;4960543;28;20039;-66
2021/04/24 08:14:08;;;;;;;11.07;2.97;;;8.60;73.30;;;;;;4976791;28;20488;-67
2021/04/24 08:16:35;;;;;;;12.32;3.85;;;8.60;74.00;;;;;;4964386;28;20079;-67
2021/04/24 08:19:01;;;;;;;9.27;2.80;;;8.70;74.10;;;;;;4967132;28;20441;-64
2021/04/24 08:21:29;;;;;;;11.75;2.85;;;8.70;74.10;;;;;;4961772;28;20539;-67
2021/04/24 08:23:59;;;;;;;9.05;2.85;;;8.80;73.20;;;;;;4964110;28;20042;-67
2021/04/24 08:26:27;;;;;;;11.80;3.60;;;8.80;71.00;;;;;;4964098;28;20059;-67
2021/04/24 08:29:05;;;;;;;10.35;3.25;;;8.80;71.00;;;;;;4965836;28;20290;-66
2021/04/24 08:31:33;;;;;;;9.38;2.90;;;8.90;70.20;;;;;;4963208;28;20039;-67
2021/04/24 08:33:59;;;;;;;10.35;2.60;;;8.90;70.70;;;;;;4964542;28;20488;-66
2021/04/24 08:36:28;;;;;;;9.77;2.88;;;8.90;70.50;;;;;;4964062;28;20031;-67
2021/04/24 08:38:54;;;;;;;6.32;2.28;;;9.00;69.10;;;;;;4964378;28;20508;-67
2021/04/24 08:41:20;;;;;;;15.90;3.03;;;9.00;69.40;;;;;;4964518;28;20063;-67
2021/04/24 08:43:48;;;;;;;9.32;2.50;;;9.00;69.40;;;;;;4965617;28;20035;-67
2021/04/24 08:46:16;;;;;;;13.75;3.42;;;9.10;69.50;;;;;;4965493;28;20023;-67
2021/04/24 08:48:42;;;;;;;16.40;3.65;;;9.10;68.90;;;;;;4964973;28;20102;-68
2021/04/24 08:51:08;;;;;;;10.52;3.03;;;9.20;68.00;;;;;;4963612;28;20035;-67
2021/04/24 08:53:34;;;;;;;13.57;3.30;;;9.20;67.20;;;;;;4964051;28;20043;-67
2021/04/24 08:55:59;;;;;;;9.15;2.10;;;9.10;67.40;;;;;;4960528;28;20038;-66
2021/04/24 08:58:25;;;;;;;10.40;2.50;;;9.10;68.10;;;;;;4960724;28;20031;-65
2021/04/24 09:00:52;;;;;;;9.30;3.30;;;9.20;67.90;;;;;;4963261;28;20090;-67
2021/04/24 09:03:21;;;;;;;8.40;3.22;;;9.20;67.20;;;;;;4965263;28;20031;-65
2021/04/24 09:05:51;;;;;;;11.88;2.95;;;9.30;66.20;;;;;;4962895;28;20038;-67
2021/04/24 09:08:25;;;;;;;10.40;2.20;;;9.30;65.80;;;;;;4963539;28;20113;-66
2021/04/24 09:10:56;;;;;;;4.65;2.00;;;9.40;65.40;;;;;;4962363;28;20178;-66
2021/04/24 09:13:23;;;;;;;8.60;2.85;;;9.40;65.10;;;;;;4961790;28;20050;-66
2021/04/24 09:15:50;;;;;;;8.23;2.53;;;9.50;64.90;;;;;;4959785;28;20050;-66
2021/04/24 09:18:21;;;;;;;8.35;2.80;;;9.60;65.00;;;;;;4967927;28;20118;-66
2021/04/24 09:20:49;;;;;;;10.07;3.00;;;9.60;63.70;;;;;;4965931;28;20027;-66
2021/04/24 09:23:18;;;;;;;6.30;2.30;;;9.70;63.30;;;;;;4961494;28;20452;-66
2021/04/24 09:26:05;;;;;;;7.88;2.50;;;9.70;64.00;;;;;;4964524;28;20156;-66
2021/04/24 09:28:37;;;;;;;7.75;2.55;;;9.80;62.70;;;;;;4961633;28;20118;-66
2021/04/24 09:31:13;;;;;;;6.20;2.30;;;9.80;61.00;;;;;;4963301;28;20031;-67
2021/04/24 09:33:40;;;;;;;6.00;2.40;;;9.90;61.90;;;;;;4961992;28;20041;-66
2021/04/24 09:36:08;;;;;;;6.50;2.10;;;9.90;62.60;;;;;;4964734;28;20045;-66
2021/04/24 09:38:48;;;;;;;5.57;1.73;;;9.90;59.40;;;;;;4961282;28;20098;-66
2021/04/24 09:41:19;;;;;;;7.63;2.70;;;10.00;59.60;;;;;;4965015;28;20072;-66
2021/04/24 09:44:13;;;;;;;11.18;3.08;;;10.10;59.60;;;;;;4968091;28;20121;-66
2021/04/24 09:46:48;;;;;;;10.68;4.07;;;10.20;59.60;;;;;;4960657;28;20038;-65
2021/04/24 09:49:18;;;;;;;9.20;2.67;;;10.30;57.90;;;;;;4963622;28;20035;-66
2021/04/24 09:51:54;;;;;;;6.95;2.33;;;10.30;54.00;;;;;;4962317;28;20030;-66
2021/04/24 09:54:22;;;;;;;8.80;2.38;;;10.30;54.90;;;;;;4961669;28;20501;-66
2021/04/24 09:57:01;;;;;;;5.60;2.28;;;10.40;53.60;;;;;;4958678;28;20037;-66
2021/04/24 09:59:27;;;;;;;9.85;3.72;;;10.50;55.00;;;;;;4958870;28;20034;-66
2021/04/24 10:02:01;;;;;;;9.52;2.35;;;10.70;53.90;;;;;;4963476;28;20548;-66
2021/04/24 10:04:28;;;;;;;8.32;1.80;;;10.90;49.60;;;;;;4968530;28;20027;-66
2021/04/24 10:06:55;;;;;;;4.70;2.13;;;10.90;52.30;;;;;;4963830;28;20031;-66
2021/04/24 10:09:31;;;;;;;7.97;2.03;;;10.90;53.20;;;;;;4960988;28;20437;-67
2021/04/24 10:11:59;;;;;;;5.03;1.70;;;10.90;50.60;;;;;;4960437;28;20034;-66
2021/04/24 10:14:41;;;;;;;7.03;2.58;;;10.90;52.20;;;;;;4964183;28;20444;-66
2021/04/24 10:17:09;;;;;;;;;;;10.90;53.10;;;;;;4962362;28;20031;-67
2021/04/24 10:19:36;;;;;;;5.10;1.95;;;10.90;53.00;;;;;;4961955;28;19906;-66
2021/04/24 10:22:07;;;;;;;4.03;1.98;;;10.90;54.10;;;;;;4963196;28;20039;-66
2021/04/24 10:24:33;;;;;;;3.00;1.17;;;10.90;53.10;;;;;;4962178;28;20515;-66
2021/04/24 10:27:00;;;;;;;5.35;1.55;;;10.90;50.10;;;;;;4962469;28;20031;-67
2021/04/24 10:29:26;;;;;;;2.45;1.33;;;10.80;47.20;;;;;;4960136;28;20182;-66
2021/04/24 10:31:53;;;;;;;3.95;1.70;;;10.90;47.70;;;;;;4965280;28;20050;-67
2021/04/24 10:34:19;;;;;;;7.53;2.13;;;10.90;44.80;;;;;;4964222;28;20026;-67
2021/04/24 10:36:46;;;;;;;5.80;2.30;;;10.90;47.10;;;;;;4964058;28;20030;-66
2021/04/24 10:39:20;;;;;;;5.32;1.88;;;11.00;49.10;;;;;;4963788;28;20042;-67
2021/04/24 10:41:54;;;;;;;7.35;2.20;;;11.10;50.80;;;;;;4963692;28;20543;-67
2021/04/24 10:44:21;;;;;;;6.63;2.03;;;11.30;52.00;;;;;;4963203;28;20041;-67
2021/04/24 10:46:50;;;;;;;5.15;1.92;;;11.40;51.80;;;;;;4962163;28;20098;-67
2021/04/24 10:49:23;;;;;;;5.75;2.70;;;11.40;52.00;;;;;;4962940;28;20038;-67
2021/04/24 10:52:00;;;;;;;4.97;2.50;;;11.40;49.30;;;;;;4964254;28;20417;-67
2021/04/24 10:54:28;;;;;;;6.78;2.35;;;11.40;48.00;;;;;;4962177;28;20119;-66
2021/04/24 10:56:54;;;;;;;6.43;2.50;;;11.30;48.20;;;;;;4961739;28;20464;-67
2021/04/24 10:59:25;;;;;;;5.45;2.25;;;11.30;49.50;;;;;;4962740;28;20041;-66
2021/04/24 11:02:10;;;;;;;8.18;2.25;;;11.30;50.50;;;;;;4958575;28;20054;-67
2021/04/24 11:04:46;;;;;;;7.85;2.50;;;11.30;49.40;;;;;;4962043;28;20500;-67
2021/04/24 11:07:27;;;;;;;6.50;2.83;;;11.50;53.70;;;;;;4962793;28;20023;-67
2021/04/24 11:10:11;;;;;;;9.77;3.03;;;11.80;49.90;;;;;;4962565;28;20098;-67
2021/04/24 11:12:42;;;;;;;6.85;1.92;;;11.90;47.70;;;;;;4957112;28;20052;-66
2021/04/24 11:15:09;;;;;;;6.68;2.30;;;11.90;48.70;;;;;;4961161;28;20023;-66
2021/04/24 11:17:38;;;;;;;6.37;1.97;;;12.10;50.10;;;;;;4959160;28;20057;-66
2021/04/24 11:20:09;;;;;;;6.78;2.40;;;12.30;50.90;;;;;;4958868;28;20034;-66
2021/04/24 11:22:37;;;;;;;9.85;2.83;;;13.20;51.80;;;;;;4959085;28;20027;-67
2021/04/24 11:25:22;;;;;;;7.97;2.40;;;14.40;44.80;;;;;;4963384;28;21116;-66
2021/04/24 11:28:06;;;;;;;6.18;2.00;;;15.50;43.60;;;;;;4959318;28;20046;-66
2021/04/24 11:31:01;;;;;;;5.88;2.15;;;16.80;39.00;;;;;;4962587;28;20420;-66
2021/04/24 11:33:30;;;;;;;7.63;2.38;;;18.00;34.50;;;;;;4961575;28;20421;-66
2021/04/24 11:36:25;;;;;;;7.32;2.38;;;17.30;33.10;;;;;;4959871;28;20039;-66
2021/04/24 11:38:54;;;;;;;6.50;2.20;;;16.00;34.20;;;;;;4962668;28;20404;-66
2021/04/24 11:41:43;;;;;;;6.10;2.10;;;15.00;36.40;;;;;;4961118;28;20038;-65
2021/04/24 11:44:18;;;;;;;4.82;2.28;;;14.30;38.50;;;;;;4963218;28;20027;-66
2021/04/24 11:46:46;;;;;;;5.35;2.35;;;14.20;42.40;;;;;;4956685;28;20019;-64
2021/04/24 11:49:27;;;;;;;6.18;1.92;;;14.90;40.50;;;;;;4962811;28;20059;-64
2021/04/24 11:52:07;;;;;;;4.40;2.07;;;15.70;40.30;;;;;;4961907;28;20042;-62
2021/04/24 11:54:38;;;;;;;6.90;3.35;;;16.40;40.00;;;;;;4962858;28;20035;-62
2021/04/24 11:57:09;;;;;;;7.22;2.55;;;16.90;35.90;;;;;;4961365;28;20553;-63
2021/04/24 11:59:37;;;;;;;4.40;2.08;;;17.10;36.80;;;;;;4960673;28;20138;-66
2021/04/24 12:02:19;;;;;;;4.63;2.00;;;16.90;35.20;;;;;;4956709;28;20109;-67
2021/04/24 12:04:49;;;;;;;5.00;2.20;;;16.40;35.00;;;;;;4962286;28;20065;-66
2021/04/24 12:07:19;;;;;;;7.50;2.25;;;15.80;36.90;;;;;;4960160;28;20537;-65
2021/04/24 12:09:54;;;;;;;5.78;2.38;;;15.20;36.70;;;;;;4961186;28;20030;-67
2021/04/24 12:12:29;;;;;;;4.78;2.17;;;14.70;38.70;;;;;;4964787;28;20110;-66
2021/04/24 12:15:13;;;;;;;8.52;2.50;;;14.30;38.00;;;;;;4963064;28;20035;-67
2021/04/24 12:18:03;;;;;;;6.68;2.90;;;14.00;39.70;;;;;;4963007;28;20374;-66
2021/04/24 12:20:30;;;;;;;5.30;2.67;;;14.40;41.10;;;;;;4960236;28;20039;-67
2021/04/24 12:23:00;;;;;;;5.97;2.33;;;15.00;40.70;;;;;;4962011;28;20042;-66
2021/04/24 12:25:28;;;;;;;6.22;2.42;;;15.60;37.90;;;;;;4961219;28;20038;-67
2021/04/24 12:27:56;;;;;;;5.80;2.25;;;16.10;36.90;;;;;;4962635;28;20035;-66
2021/04/24 12:30:27;;;;;;;4.75;1.92;;;16.50;34.70;;;;;;4960637;28;20038;-66
2021/04/24 12:33:05;;;;;;;5.05;1.70;;;16.90;36.60;;;;;;4960394;28;20535;-66
2021/04/24 12:35:34;;;;;;;5.10;1.90;;;17.60;37.30;;;;;;4958130;28;20349;-66
2021/04/24 12:38:10;;;;;;;5.50;2.42;;;18.20;34.60;;;;;;4962265;28;20027;-67
2021/04/24 12:40:45;;;;;;;3.75;1.88;;;18.40;32.80;;;;;;4962941;28;20050;-67
2021/04/24 12:43:23;;;;;;;5.03;2.53;;;18.50;32.80;;;;;;4962174;28;20028;-68
2021/04/24 12:45:51;;;;;;;3.70;1.95;;;18.70;32.00;;;;;;4978835;28;20023;-66
2021/04/24 12:48:23;;;;;;;5.28;2.22;;;19.00;31.20;;;;;;4964700;28;20477;-65
2021/04/24 12:50:53;;;;;;;6.07;2.15;;;19.00;30.10;;;;;;4964362;28;20053;-65
2021/04/24 12:53:29;;;;;;;5.88;2.05;;;18.40;31.50;;;;;;4963031;28;20493;-65
2021/04/24 12:56:10;;;;;;;5.07;2.30;;;17.60;32.90;;;;;;4984850;28;20058;-63